sensor_id;sensor_type;location;lat;lon;timestamp;temperature;humidity
40323;DHT22;26030;51.164;17.100;2023-02-24T00:02:01;23.20;54.00
40323;DHT22;26030;51.164;17.100;2023-02-24T00:07:09;23.20;54.60
40323;DHT22;26030;51.164;17.100;2023-02-24T00:12:15;23.10;54.70
40323;DHT22;26030;51.164;17.100;2023-02-24T00:17:19;23.20;55.00
40323;DHT22;26030;51.164;17.100;2023-02-24T00:22:23;23.10;55.20
40323;DHT22;26030;51.164;17.100;2023-02-24T00:27:27;23.10;55.20
40323;DHT22;26030;51.164;17.100;2023-02-24T00:32:32;23.10;55.00
40323;DHT22;26030;51.164;17.100;2023-02-24T00:37:38;23.20;54.90
40323;DHT22;26030;51.164;17.100;2023-02-24T00:42:43;23.20;54.50
40323;DHT22;26030;51.164;17.100;2023-02-24T00:47:48;23.20;54.80
40323;DHT22;26030;51.164;17.100;2023-02-24T00:52:52;23.30;55.10
40323;DHT22;26030;51.164;17.100;2023-02-24T00:57:56;23.40;54.90
40323;DHT22;26030;51.164;17.100;2023-02-24T01:03:01;23.40;53.80
40323;DHT22;26030;51.164;17.100;2023-02-24T01:08:06;23.40;54.30
40323;DHT22;26030;51.164;17.100;2023-02-24T01:13:10;23.40;54.60
40323;DHT22;26030;51.164;17.100;2023-02-24T01:18:16;23.20;54.90
40323;DHT22;26030;51.164;17.100;2023-02-24T01:23:20;23.10;54.90
40323;DHT22;26030;51.164;17.100;2023-02-24T01:28:25;23.00;55.10
40323;DHT22;26030;51.164;17.100;2023-02-24T01:33:30;23.00;55.10
40323;DHT22;26030;51.164;17.100;2023-02-24T01:38:41;23.00;55.30
40323;DHT22;26030;51.164;17.100;2023-02-24T01:44:04;22.90;56.10
40323;DHT22;26030;51.164;17.100;2023-02-24T01:49:14;22.80;55.60
40323;DHT22;26030;51.164;17.100;2023-02-24T01:54:38;22.70;56.20
40323;DHT22;26030;51.164;17.100;2023-02-24T01:59:47;22.60;55.60
40323;DHT22;26030;51.164;17.100;2023-02-24T02:05:00;22.60;55.70
40323;DHT22;26030;51.164;17.100;2023-02-24T02:10:09;22.60;56.00
40323;DHT22;26030;51.164;17.100;2023-02-24T02:15:15;22.50;56.00
40323;DHT22;26030;51.164;17.100;2023-02-24T02:20:43;22.50;56.30
40323;DHT22;26030;51.164;17.100;2023-02-24T02:31:32;22.40;56.50
40323;DHT22;26030;51.164;17.100;2023-02-24T02:36:52;22.40;56.00
40323;DHT22;26030;51.164;17.100;2023-02-24T02:42:20;22.30;56.10
40323;DHT22;26030;51.164;17.100;2023-02-24T02:53:14;22.30;56.10
40323;DHT22;26030;51.164;17.100;2023-02-24T02:58:29;22.20;56.20
40323;DHT22;26030;51.164;17.100;2023-02-24T03:03:42;22.20;56.50
40323;DHT22;26030;51.164;17.100;2023-02-24T03:15:27;22.10;56.60
40323;DHT22;26030;51.164;17.100;2023-02-24T03:20:36;22.00;56.60
40323;DHT22;26030;51.164;17.100;2023-02-24T03:30:58;21.90;56.70
40323;DHT22;26030;51.164;17.100;2023-02-24T03:36:09;21.90;56.70
40323;DHT22;26030;51.164;17.100;2023-02-24T03:41:17;21.90;56.70
40323;DHT22;26030;51.164;17.100;2023-02-24T03:46:22;21.90;57.10
40323;DHT22;26030;51.164;17.100;2023-02-24T03:51:27;21.80;56.90
40323;DHT22;26030;51.164;17.100;2023-02-24T04:02:15;22.00;57.00
40323;DHT22;26030;51.164;17.100;2023-02-24T04:08:00;22.20;56.60
40323;DHT22;26030;51.164;17.100;2023-02-24T04:13:12;22.30;56.50
40323;DHT22;26030;51.164;17.100;2023-02-24T04:18:25;22.40;56.30
40323;DHT22;26030;51.164;17.100;2023-02-24T04:23:38;22.60;56.10
40323;DHT22;26030;51.164;17.100;2023-02-24T04:28:44;22.70;56.20
40323;DHT22;26030;51.164;17.100;2023-02-24T04:33:51;22.70;56.00
40323;DHT22;26030;51.164;17.100;2023-02-24T04:39:02;22.90;55.60
40323;DHT22;26030;51.164;17.100;2023-02-24T04:44:07;22.90;55.10
40323;DHT22;26030;51.164;17.100;2023-02-24T04:49:11;22.90;55.10
40323;DHT22;26030;51.164;17.100;2023-02-24T04:54:17;23.00;55.00
40323;DHT22;26030;51.164;17.100;2023-02-24T04:59:22;23.10;54.90
40323;DHT22;26030;51.164;17.100;2023-02-24T05:04:27;23.10;54.70
40323;DHT22;26030;51.164;17.100;2023-02-24T05:09:34;23.10;54.50
40323;DHT22;26030;51.164;17.100;2023-02-24T05:14:38;23.30;54.50
40323;DHT22;26030;51.164;17.100;2023-02-24T05:19:42;23.40;54.50
40323;DHT22;26030;51.164;17.100;2023-02-24T05:25:05;23.30;54.00
40323;DHT22;26030;51.164;17.100;2023-02-24T05:30:10;23.30;54.10
40323;DHT22;26030;51.164;17.100;2023-02-24T05:35:15;23.40;54.00
40323;DHT22;26030;51.164;17.100;2023-02-24T05:40:19;23.50;53.90
40323;DHT22;26030;51.164;17.100;2023-02-24T05:45:26;23.60;53.60
40323;DHT22;26030;51.164;17.100;2023-02-24T05:50:32;23.60;53.80
40323;DHT22;26030;51.164;17.100;2023-02-24T05:55:37;23.60;53.80
40323;DHT22;26030;51.164;17.100;2023-02-24T06:00:41;23.60;54.30
40323;DHT22;26030;51.164;17.100;2023-02-24T06:05:52;23.70;53.80
40323;DHT22;26030;51.164;17.100;2023-02-24T06:10:56;23.60;53.60
40323;DHT22;26030;51.164;17.100;2023-02-24T06:16:00;23.50;53.70
40323;DHT22;26030;51.164;17.100;2023-02-24T06:21:04;23.40;53.80
40323;DHT22;26030;51.164;17.100;2023-02-24T06:26:10;23.30;54.30
40323;DHT22;26030;51.164;17.100;2023-02-24T06:31:21;23.20;55.00
40323;DHT22;26030;51.164;17.100;2023-02-24T06:36:26;23.10;55.50
40323;DHT22;26030;51.164;17.100;2023-02-24T06:41:30;23.10;55.80
40323;DHT22;26030;51.164;17.100;2023-02-24T06:46:35;22.90;55.10
40323;DHT22;26030;51.164;17.100;2023-02-24T06:51:40;22.90;55.30
40323;DHT22;26030;51.164;17.100;2023-02-24T06:56:46;22.90;55.40
40323;DHT22;26030;51.164;17.100;2023-02-24T07:01:50;22.80;55.80
40323;DHT22;26030;51.164;17.100;2023-02-24T07:06:58;22.80;55.20
40323;DHT22;26030;51.164;17.100;2023-02-24T07:12:06;22.60;55.40
40323;DHT22;26030;51.164;17.100;2023-02-24T07:17:10;22.50;55.70
40323;DHT22;26030;51.164;17.100;2023-02-24T07:22:17;22.70;58.00
40323;DHT22;26030;51.164;17.100;2023-02-24T07:27:27;22.70;58.20
40323;DHT22;26030;51.164;17.100;2023-02-24T07:32:32;22.70;58.00
40323;DHT22;26030;51.164;17.100;2023-02-24T07:37:36;22.70;57.40
40323;DHT22;26030;51.164;17.100;2023-02-24T07:42:41;22.70;57.50
40323;DHT22;26030;51.164;17.100;2023-02-24T07:47:50;22.60;57.40
40323;DHT22;26030;51.164;17.100;2023-02-24T07:52:55;22.50;57.40
40323;DHT22;26030;51.164;17.100;2023-02-24T07:58:00;22.50;57.50
40323;DHT22;26030;51.164;17.100;2023-02-24T08:03:05;22.40;57.70
40323;DHT22;26030;51.164;17.100;2023-02-24T08:08:09;22.40;58.10
40323;DHT22;26030;51.164;17.100;2023-02-24T08:13:15;22.40;57.80
40323;DHT22;26030;51.164;17.100;2023-02-24T08:18:21;22.40;57.80
40323;DHT22;26030;51.164;17.100;2023-02-24T08:23:25;22.40;58.50
40323;DHT22;26030;51.164;17.100;2023-02-24T08:28:29;22.40;58.60
40323;DHT22;26030;51.164;17.100;2023-02-24T08:33:34;22.40;57.90
40323;DHT22;26030;51.164;17.100;2023-02-24T08:38:40;22.40;58.50
40323;DHT22;26030;51.164;17.100;2023-02-24T08:43:45;22.40;58.40
40323;DHT22;26030;51.164;17.100;2023-02-24T08:48:54;22.30;58.50
40323;DHT22;26030;51.164;17.100;2023-02-24T08:54:01;22.20;58.70
40323;DHT22;26030;51.164;17.100;2023-02-24T08:59:14;22.30;58.30
40323;DHT22;26030;51.164;17.100;2023-02-24T09:04:40;22.40;58.10
40323;DHT22;26030;51.164;17.100;2023-02-24T09:09:47;22.30;57.90
40323;DHT22;26030;51.164;17.100;2023-02-24T09:14:57;22.20;58.20
40323;DHT22;26030;51.164;17.100;2023-02-24T09:20:11;22.10;58.40
40323;DHT22;26030;51.164;17.100;2023-02-24T09:25:36;22.10;58.20
40323;DHT22;26030;51.164;17.100;2023-02-24T09:30:54;22.10;58.00
40323;DHT22;26030;51.164;17.100;2023-02-24T09:36:03;22.10;58.10
40323;DHT22;26030;51.164;17.100;2023-02-24T09:41:47;22.00;58.10
40323;DHT22;26030;51.164;17.100;2023-02-24T09:47:09;22.10;58.50
40323;DHT22;26030;51.164;17.100;2023-02-24T09:52:23;22.20;57.40
40323;DHT22;26030;51.164;17.100;2023-02-24T09:57:46;22.30;57.20
40323;DHT22;26030;51.164;17.100;2023-02-24T10:03:12;22.10;57.60
40323;DHT22;26030;51.164;17.100;2023-02-24T10:08:24;22.00;58.10
40323;DHT22;26030;51.164;17.100;2023-02-24T10:13:55;22.00;60.00
40323;DHT22;26030;51.164;17.100;2023-02-24T10:19:23;21.90;60.30
40323;DHT22;26030;51.164;17.100;2023-02-24T10:24:37;22.00;59.80
40323;DHT22;26030;51.164;17.100;2023-02-24T10:29:57;22.00;59.30
40323;DHT22;26030;51.164;17.100;2023-02-24T10:35:12;22.00;59.00
40323;DHT22;26030;51.164;17.100;2023-02-24T10:40:21;22.00;59.00
40323;DHT22;26030;51.164;17.100;2023-02-24T10:45:37;22.00;58.60
40323;DHT22;26030;51.164;17.100;2023-02-24T10:50:47;21.80;58.80
40323;DHT22;26030;51.164;17.100;2023-02-24T10:55:58;22.00;59.70
40323;DHT22;26030;51.164;17.100;2023-02-24T11:01:29;22.10;59.10
40323;DHT22;26030;51.164;17.100;2023-02-24T11:06:46;22.00;59.70
40323;DHT22;26030;51.164;17.100;2023-02-24T11:12:01;22.00;59.50
40323;DHT22;26030;51.164;17.100;2023-02-24T11:17:33;22.00;59.10
40323;DHT22;26030;51.164;17.100;2023-02-24T11:22:40;21.90;59.70
40323;DHT22;26030;51.164;17.100;2023-02-24T11:27:46;21.90;59.20
40323;DHT22;26030;51.164;17.100;2023-02-24T11:43:44;21.90;59.20
40323;DHT22;26030;51.164;17.100;2023-02-24T11:48:59;21.90;59.20
40323;DHT22;26030;51.164;17.100;2023-02-24T11:54:12;21.90;60.00
40323;DHT22;26030;51.164;17.100;2023-02-24T11:59:29;21.90;59.40
40323;DHT22;26030;51.164;17.100;2023-02-24T12:04:45;21.90;59.10
40323;DHT22;26030;51.164;17.100;2023-02-24T12:15:24;21.70;59.20
40323;DHT22;26030;51.164;17.100;2023-02-24T12:20:35;21.70;59.20
40323;DHT22;26030;51.164;17.100;2023-02-24T12:31:15;21.80;58.60
40323;DHT22;26030;51.164;17.100;2023-02-24T12:53:22;21.90;57.70
40323;DHT22;26030;51.164;17.100;2023-02-24T12:58:35;22.10;57.40
40323;DHT22;26030;51.164;17.100;2023-02-24T13:03:48;22.30;57.10
40323;DHT22;26030;51.164;17.100;2023-02-24T13:19:44;22.00;58.90
40323;DHT22;26030;51.164;17.100;2023-02-24T13:24:56;22.10;58.40
40323;DHT22;26030;51.164;17.100;2023-02-24T13:45:36;22.00;58.70
40323;DHT22;26030;51.164;17.100;2023-02-24T14:01:20;21.90;59.50
40323;DHT22;26030;51.164;17.100;2023-02-24T14:06:32;22.00;59.70
40323;DHT22;26030;51.164;17.100;2023-02-24T14:11:36;21.90;59.50
40323;DHT22;26030;51.164;17.100;2023-02-24T14:16:40;21.90;59.90
40323;DHT22;26030;51.164;17.100;2023-02-24T14:21:54;21.70;60.90
40323;DHT22;26030;51.164;17.100;2023-02-24T14:27:00;21.70;62.30
40323;DHT22;26030;51.164;17.100;2023-02-24T14:32:04;21.70;62.50
40323;DHT22;26030;51.164;17.100;2023-02-24T14:37:09;21.70;63.00
40323;DHT22;26030;51.164;17.100;2023-02-24T14:42:20;21.70;63.50
40323;DHT22;26030;51.164;17.100;2023-02-24T14:47:25;21.70;63.20
40323;DHT22;26030;51.164;17.100;2023-02-24T14:57:54;21.70;63.60
40323;DHT22;26030;51.164;17.100;2023-02-24T15:08:33;21.60;63.90
40323;DHT22;26030;51.164;17.100;2023-02-24T15:13:42;21.70;64.30
40323;DHT22;26030;51.164;17.100;2023-02-24T15:18:51;21.80;63.70
40323;DHT22;26030;51.164;17.100;2023-02-24T15:24:00;21.60;63.80
40323;DHT22;26030;51.164;17.100;2023-02-24T15:29:22;21.60;63.60
40323;DHT22;26030;51.164;17.100;2023-02-24T15:34:33;21.60;63.50
40323;DHT22;26030;51.164;17.100;2023-02-24T15:39:42;21.60;63.70
40323;DHT22;26030;51.164;17.100;2023-02-24T15:44:51;21.70;63.50
40323;DHT22;26030;51.164;17.100;2023-02-24T15:49:57;21.60;63.60
40323;DHT22;26030;51.164;17.100;2023-02-24T15:55:02;21.70;63.00
40323;DHT22;26030;51.164;17.100;2023-02-24T16:00:10;21.70;62.90
40323;DHT22;26030;51.164;17.100;2023-02-24T16:05:19;21.80;64.20
40323;DHT22;26030;51.164;17.100;2023-02-24T16:10:27;22.00;63.10
40323;DHT22;26030;51.164;17.100;2023-02-24T16:15:32;22.10;63.70
40323;DHT22;26030;51.164;17.100;2023-02-24T16:20:41;22.10;63.30
40323;DHT22;26030;51.164;17.100;2023-02-24T16:25:46;22.30;62.90
40323;DHT22;26030;51.164;17.100;2023-02-24T16:30:52;22.50;62.20
40323;DHT22;26030;51.164;17.100;2023-02-24T16:35:57;22.60;61.30
40323;DHT22;26030;51.164;17.100;2023-02-24T16:41:02;22.70;60.90
40323;DHT22;26030;51.164;17.100;2023-02-24T16:46:09;22.80;60.60
40323;DHT22;26030;51.164;17.100;2023-02-24T16:51:20;23.00;60.30
40323;DHT22;26030;51.164;17.100;2023-02-24T16:56:24;23.10;59.80
40323;DHT22;26030;51.164;17.100;2023-02-24T17:01:29;23.10;59.50
40323;DHT22;26030;51.164;17.100;2023-02-24T17:06:35;23.20;59.00
40323;DHT22;26030;51.164;17.100;2023-02-24T17:11:41;23.30;59.20
40323;DHT22;26030;51.164;17.100;2023-02-24T17:22:17;23.40;58.70
40323;DHT22;26030;51.164;17.100;2023-02-24T17:27:21;23.30;58.20
40323;DHT22;26030;51.164;17.100;2023-02-24T17:32:26;23.30;58.30
40323;DHT22;26030;51.164;17.100;2023-02-24T17:37:30;23.40;57.60
40323;DHT22;26030;51.164;17.100;2023-02-24T17:42:35;23.20;57.00
40323;DHT22;26030;51.164;17.100;2023-02-24T17:47:41;23.10;57.10
40323;DHT22;26030;51.164;17.100;2023-02-24T17:52:48;22.90;57.20
40323;DHT22;26030;51.164;17.100;2023-02-24T17:57:54;22.90;57.00
40323;DHT22;26030;51.164;17.100;2023-02-24T18:02:59;22.80;57.40
40323;DHT22;26030;51.164;17.100;2023-02-24T18:08:09;22.70;58.20
40323;DHT22;26030;51.164;17.100;2023-02-24T18:13:18;22.70;57.90
40323;DHT22;26030;51.164;17.100;2023-02-24T18:18:26;22.60;57.90
40323;DHT22;26030;51.164;17.100;2023-02-24T18:23:37;22.50;57.90
40323;DHT22;26030;51.164;17.100;2023-02-24T18:28:43;22.40;57.70
40323;DHT22;26030;51.164;17.100;2023-02-24T18:33:51;22.40;57.80
40323;DHT22;26030;51.164;17.100;2023-02-24T18:38:59;22.40;58.00
40323;DHT22;26030;51.164;17.100;2023-02-24T18:44:05;22.50;58.50
40323;DHT22;26030;51.164;17.100;2023-02-24T18:49:11;22.50;59.00
40323;DHT22;26030;51.164;17.100;2023-02-24T18:54:18;22.50;59.30
40323;DHT22;26030;51.164;17.100;2023-02-24T18:59:24;22.40;60.00
40323;DHT22;26030;51.164;17.100;2023-02-24T19:04:31;22.30;60.80
40323;DHT22;26030;51.164;17.100;2023-02-24T19:09:36;22.30;61.10
40323;DHT22;26030;51.164;17.100;2023-02-24T19:14:49;22.30;60.90
40323;DHT22;26030;51.164;17.100;2023-02-24T19:19:56;22.30;60.90
40323;DHT22;26030;51.164;17.100;2023-02-24T19:25:02;22.40;59.60
40323;DHT22;26030;51.164;17.100;2023-02-24T19:30:08;22.20;59.60
40323;DHT22;26030;51.164;17.100;2023-02-24T19:35:15;22.20;59.60
40323;DHT22;26030;51.164;17.100;2023-02-24T19:40:20;22.10;59.30
40323;DHT22;26030;51.164;17.100;2023-02-24T19:45:26;22.10;59.70
40323;DHT22;26030;51.164;17.100;2023-02-24T19:50:32;22.10;59.70
40323;DHT22;26030;51.164;17.100;2023-02-24T19:55:39;22.20;59.50
40323;DHT22;26030;51.164;17.100;2023-02-24T20:00:44;22.20;59.70
40323;DHT22;26030;51.164;17.100;2023-02-24T20:05:53;22.10;60.20
40323;DHT22;26030;51.164;17.100;2023-02-24T20:11:00;22.10;59.30
40323;DHT22;26030;51.164;17.100;2023-02-24T20:16:12;21.90;59.40
40323;DHT22;26030;51.164;17.100;2023-02-24T20:21:21;22.00;58.90
40323;DHT22;26030;51.164;17.100;2023-02-24T20:26:29;21.90;58.90
40323;DHT22;26030;51.164;17.100;2023-02-24T20:38:43;21.90;59.00
40323;DHT22;26030;51.164;17.100;2023-02-24T20:43:49;21.80;59.30
40323;DHT22;26030;51.164;17.100;2023-02-24T20:48:57;21.70;59.50
40323;DHT22;26030;51.164;17.100;2023-02-24T20:54:05;21.70;60.00
40323;DHT22;26030;51.164;17.100;2023-02-24T20:59:13;21.70;60.60
40323;DHT22;26030;51.164;17.100;2023-02-24T21:04:21;21.80;59.90
40323;DHT22;26030;51.164;17.100;2023-02-24T21:09:26;21.60;60.00
40323;DHT22;26030;51.164;17.100;2023-02-24T21:14:33;21.50;60.10
40323;DHT22;26030;51.164;17.100;2023-02-24T21:19:40;21.50;60.20
40323;DHT22;26030;51.164;17.100;2023-02-24T21:24:48;21.60;60.20
40323;DHT22;26030;51.164;17.100;2023-02-24T21:29:53;21.60;59.60
40323;DHT22;26030;51.164;17.100;2023-02-24T21:35:00;21.60;60.00
40323;DHT22;26030;51.164;17.100;2023-02-24T21:40:06;21.50;60.30
40323;DHT22;26030;51.164;17.100;2023-02-24T21:45:15;21.50;60.40
40323;DHT22;26030;51.164;17.100;2023-02-24T21:50:22;21.50;60.60
40323;DHT22;26030;51.164;17.100;2023-02-24T21:55:29;21.50;60.60
40323;DHT22;26030;51.164;17.100;2023-02-24T22:00:34;21.60;60.60
40323;DHT22;26030;51.164;17.100;2023-02-24T22:05:39;21.50;61.00
40323;DHT22;26030;51.164;17.100;2023-02-24T22:10:59;21.60;61.10
40323;DHT22;26030;51.164;17.100;2023-02-24T22:16:09;21.60;60.50
40323;DHT22;26030;51.164;17.100;2023-02-24T22:21:16;21.80;64.20
40323;DHT22;26030;51.164;17.100;2023-02-24T22:26:22;21.90;62.80
40323;DHT22;26030;51.164;17.100;2023-02-24T22:31:28;22.00;62.60
40323;DHT22;26030;51.164;17.100;2023-02-24T22:36:34;21.90;63.60
40323;DHT22;26030;51.164;17.100;2023-02-24T22:41:43;22.00;62.90
40323;DHT22;26030;51.164;17.100;2023-02-24T22:46:49;22.00;62.50
40323;DHT22;26030;51.164;17.100;2023-02-24T22:51:55;22.00;62.20
40323;DHT22;26030;51.164;17.100;2023-02-24T22:57:00;21.90;62.30
40323;DHT22;26030;51.164;17.100;2023-02-24T23:02:04;21.90;62.10
40323;DHT22;26030;51.164;17.100;2023-02-24T23:07:09;21.90;62.00
40323;DHT22;26030;51.164;17.100;2023-02-24T23:12:15;21.80;61.70
40323;DHT22;26030;51.164;17.100;2023-02-24T23:17:19;21.60;62.50
40323;DHT22;26030;51.164;17.100;2023-02-24T23:22:25;21.60;62.20
40323;DHT22;26030;51.164;17.100;2023-02-24T23:27:29;21.60;62.20
40323;DHT22;26030;51.164;17.100;2023-02-24T23:32:34;21.40;63.20
40323;DHT22;26030;51.164;17.100;2023-02-24T23:37:39;21.30;62.90
40323;DHT22;26030;51.164;17.100;2023-02-24T23:42:44;21.30;62.90
40323;DHT22;26030;51.164;17.100;2023-02-24T23:47:48;21.30;62.60
40323;DHT22;26030;51.164;17.100;2023-02-24T23:52:53;21.30;63.00
40323;DHT22;26030;51.164;17.100;2023-02-24T23:57:58;21.20;62.50
